createdAt,value
2018-06-27T00:09:19.522Z,22.47
2018-06-27T00:11:48.660Z,28.43
2018-06-27T00:24:34.199Z,24.27
2018-06-27T00:41:05.115Z,20.77
2018-06-27T00:43:34.339Z,28.80
2018-06-27T00:46:03.133Z,23.60
2018-06-27T00:48:32.278Z,29.40
2018-06-27T00:51:01.444Z,21.90
2018-06-27T00:53:35.806Z,21.40
2018-06-27T00:56:05.050Z,20.53
2018-06-27T00:58:33.747Z,27.30
2018-06-27T01:01:02.952Z,23.50
2018-06-27T01:03:32.097Z,23.10
2018-06-27T01:06:01.396Z,28.53
2018-06-27T01:08:30.538Z,23.23
2018-06-27T01:10:59.735Z,34.17
2018-06-27T01:13:29.320Z,21.53
2018-06-27T01:18:32.648Z,23.37
2018-06-27T01:21:01.309Z,28.57
2018-06-27T01:23:36.855Z,26.07
2018-06-27T01:26:06.005Z,28.70
2018-06-27T01:28:35.151Z,26.90
2018-06-27T01:31:04.374Z,24.50
2018-06-27T01:33:33.680Z,19.83
2018-06-27T01:36:02.892Z,29.20
2018-06-27T01:38:32.035Z,28.27
2018-06-27T01:41:01.235Z,24.13
2018-06-27T01:43:30.371Z,25.63
2018-06-27T01:45:59.526Z,22.20
2018-06-27T01:48:28.707Z,29.30
2018-06-27T01:50:57.855Z,24.53
2018-06-27T01:53:27.009Z,22.80
2018-06-27T01:55:56.240Z,19.23
2018-06-27T01:58:25.388Z,25.30
2018-06-27T02:00:54.570Z,23.63
2018-06-27T02:03:23.720Z,23.03
2018-06-27T02:05:52.957Z,24.40
2018-06-27T02:08:22.115Z,26.03
2018-06-27T02:10:51.306Z,29.60
2018-06-27T02:13:20.456Z,26.43
2018-06-27T02:15:50.048Z,26.87
2018-06-27T02:18:19.275Z,25.23
2018-06-27T02:20:48.422Z,33.30
2018-06-27T02:23:17.607Z,26.63
2018-06-27T02:25:46.768Z,29.33
2018-06-27T02:28:18.878Z,27.80
2018-06-27T02:30:48.025Z,33.40
2018-06-27T02:33:22.426Z,21.90
2018-06-27T02:35:51.581Z,28.80
2018-06-27T02:38:21.052Z,24.67
2018-06-27T02:40:50.217Z,28.97
2018-06-27T02:43:19.633Z,22.67
2018-06-27T02:45:49.096Z,23.70
2018-06-27T02:48:18.245Z,32.30
2018-06-27T02:50:47.515Z,26.40
2018-06-27T02:53:16.714Z,41.20
2018-06-27T02:55:46.089Z,22.70
2018-06-27T02:58:15.418Z,22.50
2018-06-27T03:00:44.668Z,30.30
2018-06-27T03:03:13.891Z,25.60
2018-06-27T03:05:43.193Z,23.23
2018-06-27T03:08:12.370Z,25.37
2018-06-27T03:10:43.862Z,23.90
2018-06-27T03:13:13.049Z,38.47
2018-06-27T03:15:50.584Z,31.63
2018-06-27T03:18:19.805Z,31.70
2018-06-27T03:20:49.060Z,29.87
2018-06-27T03:23:18.252Z,32.97
2018-06-27T03:25:52.567Z,24.73
2018-06-27T03:28:24.399Z,27.77
2018-06-27T03:30:53.824Z,26.10
2018-06-27T03:33:22.983Z,27.33
2018-06-27T03:35:52.120Z,28.00
2018-06-27T03:38:21.687Z,23.90
2018-06-27T03:40:51.503Z,32.47
2018-06-27T03:43:20.673Z,33.27
2018-06-27T03:45:49.846Z,40.23
2018-06-27T03:48:19.004Z,36.83
2018-06-27T03:50:48.298Z,28.93
2018-06-27T03:53:17.511Z,29.87
2018-06-27T03:55:46.654Z,45.03
2018-06-27T03:58:15.884Z,26.80
2018-06-27T04:00:45.047Z,29.30
2018-06-27T04:03:14.356Z,33.27
2018-06-27T04:05:43.731Z,28.07
2018-06-27T04:08:12.867Z,25.43
2018-06-27T04:10:42.026Z,25.80
2018-06-27T04:13:11.392Z,21.70
2018-06-27T04:15:40.564Z,22.60
2018-06-27T04:18:09.700Z,20.13
2018-06-27T04:20:39.118Z,21.37
2018-06-27T04:23:08.251Z,20.90
2018-06-27T04:25:37.404Z,20.50
2018-06-27T04:28:07.061Z,20.37
2018-06-27T04:30:36.878Z,16.33
2018-06-27T04:33:06.056Z,14.67
2018-06-27T04:35:35.232Z,15.40
2018-06-27T04:38:04.392Z,20.20
2018-06-27T04:40:33.658Z,25.43
2018-06-27T04:43:02.820Z,18.77
2018-06-27T04:45:33.049Z,16.80
2018-06-27T04:48:21.095Z,15.30
2018-06-27T04:50:50.728Z,14.07
2018-06-27T04:53:20.014Z,20.63
2018-06-27T04:55:49.186Z,21.63
2018-06-27T04:58:18.362Z,15.33
2018-06-27T05:00:47.513Z,13.97
2018-06-27T05:03:16.724Z,20.53
2018-06-27T05:05:45.889Z,13.23
2018-06-27T05:08:15.415Z,13.50
2018-06-27T05:10:44.585Z,12.30
2018-06-27T05:13:13.736Z,26.30
2018-06-27T05:15:42.926Z,14.97
2018-06-27T05:18:12.088Z,13.63
2018-06-27T05:20:41.277Z,14.00
2018-06-27T05:23:10.416Z,16.27
2018-06-27T05:25:39.628Z,13.77
2018-06-27T05:28:09.216Z,13.80
2018-06-27T05:30:38.386Z,21.67
2018-06-27T05:33:07.595Z,15.00
2018-06-27T05:35:36.782Z,17.90
2018-06-27T05:38:06.047Z,15.27
2018-06-27T05:40:35.239Z,19.53
2018-06-27T05:43:04.371Z,16.33
2018-06-27T05:45:33.530Z,12.93
2018-06-27T05:48:02.710Z,23.53
2018-06-27T05:50:31.828Z,18.30
2018-06-27T05:53:00.944Z,16.30
2018-06-27T05:55:30.603Z,19.53
2018-06-27T05:57:59.839Z,10.97
2018-06-27T06:00:29.064Z,17.73
2018-06-27T06:02:58.259Z,16.10
2018-06-27T06:05:27.769Z,17.20
2018-06-27T06:07:56.913Z,15.73
2018-06-27T06:10:26.107Z,22.50
2018-06-27T06:12:55.227Z,15.83
2018-06-27T06:15:24.421Z,31.40
2018-06-27T06:17:53.799Z,15.97
2018-06-27T06:20:22.971Z,24.57
2018-06-27T06:22:52.116Z,24.90
2018-06-27T06:25:21.295Z,23.13
2018-06-27T06:27:50.024Z,18.30
2018-06-27T06:30:19.748Z,23.30
2018-06-27T06:33:01.252Z,22.57
2018-06-27T06:38:20.864Z,25.63
2018-06-27T06:40:50.120Z,31.67
2018-06-27T06:43:19.203Z,22.23
2018-06-27T06:45:48.399Z,28.70
2018-06-27T06:48:17.872Z,35.17
2018-06-27T06:50:46.616Z,26.30
2018-06-27T06:53:15.767Z,36.10
2018-06-27T06:55:44.926Z,30.50
2018-06-27T06:58:14.363Z,28.67
2018-06-27T07:00:43.083Z,37.20
2018-06-27T07:03:12.315Z,31.80
2018-06-27T07:05:41.482Z,36.50
2018-06-27T07:08:10.628Z,29.23
2018-06-27T07:10:39.795Z,31.87
2018-06-27T07:13:08.947Z,35.07
2018-06-27T07:15:42.279Z,29.90
2018-06-27T07:18:11.419Z,33.83
2018-06-27T07:20:40.603Z,33.53
2018-06-27T07:23:09.952Z,27.07
2018-06-27T07:25:39.140Z,31.67
2018-06-27T07:28:08.517Z,31.63
2018-06-27T07:30:38.104Z,44.83
2018-06-27T07:33:07.270Z,28.33
2018-06-27T07:35:36.475Z,26.90
2018-06-27T07:38:06.040Z,25.80
2018-06-27T07:40:35.176Z,25.10
2018-06-27T07:43:04.335Z,26.90
2018-06-27T07:45:33.945Z,19.03
2018-06-27T07:48:03.079Z,24.40
2018-06-27T07:50:32.219Z,29.30
2018-06-27T07:53:01.383Z,32.77
2018-06-27T07:55:31.885Z,20.90
2018-06-27T07:58:01.184Z,34.47
2018-06-27T08:00:30.411Z,25.90
2018-06-27T08:02:59.595Z,21.17
2018-06-27T08:05:28.923Z,25.13
2018-06-27T08:07:58.052Z,21.50
2018-06-27T08:10:27.216Z,21.30
2018-06-27T08:12:56.528Z,26.27
2018-06-27T08:15:25.675Z,28.03
2018-06-27T08:17:54.974Z,24.97
2018-06-27T08:20:24.048Z,29.23
2018-06-27T08:22:53.558Z,22.67
2018-06-27T08:25:22.741Z,24.40
2018-06-27T08:27:51.867Z,30.20
2018-06-27T08:30:21.083Z,22.83
2018-06-27T08:32:50.250Z,22.93
2018-06-27T08:35:19.415Z,29.30
2018-06-27T08:37:48.648Z,27.90
2018-06-27T08:40:17.916Z,23.73
2018-06-27T08:42:47.143Z,23.43
2018-06-27T08:45:16.294Z,25.30
2018-06-27T08:47:45.496Z,23.73
2018-06-27T08:50:14.742Z,26.40
2018-06-27T08:52:43.880Z,20.37
2018-06-27T08:55:13.068Z,23.03
2018-06-27T08:57:42.305Z,24.43
2018-06-27T09:00:11.682Z,25.27
2018-06-27T09:02:41.000Z,26.63
2018-06-27T09:05:10.185Z,24.10
2018-06-27T09:07:39.824Z,21.23
2018-06-27T09:10:08.996Z,21.50
2018-06-27T09:12:38.133Z,25.37
2018-06-27T09:15:07.327Z,30.47
2018-06-27T09:17:36.005Z,33.97
2018-06-27T09:20:05.648Z,32.90
2018-06-27T09:22:35.087Z,28.17
2018-06-27T09:25:04.345Z,23.20
2018-06-27T09:27:33.497Z,28.43
2018-06-27T09:30:03.095Z,27.07
2018-06-27T09:32:32.246Z,30.47
2018-06-27T09:35:03.740Z,26.73
2018-06-27T09:44:32.923Z,35.17
2018-06-27T09:50:07.090Z,28.83
2018-06-27T09:53:19.778Z,35.10
2018-06-27T09:59:10.967Z,27.17
2018-06-27T10:19:10.861Z,27.93
2018-06-27T10:21:39.941Z,26.63
2018-06-27T10:24:09.082Z,25.40
2018-06-27T10:26:38.648Z,31.90
2018-06-27T10:29:08.449Z,30.20
2018-06-27T10:31:37.934Z,36.70
2018-06-27T10:34:12.608Z,31.67
2018-06-27T10:36:45.181Z,31.20
2018-06-27T10:39:16.059Z,29.47
2018-06-27T10:42:52.252Z,40.43
2018-06-27T10:45:29.679Z,33.57
2018-06-27T10:48:02.149Z,26.47
2018-06-27T10:50:39.633Z,34.83
2018-06-27T10:53:08.887Z,28.03
2018-06-27T10:55:38.057Z,24.57
2018-06-27T10:58:07.171Z,24.47
2018-06-27T11:00:36.271Z,29.30
2018-06-27T11:03:05.667Z,27.50
2018-06-27T11:05:34.856Z,29.80
2018-06-27T11:08:04.485Z,25.60
2018-06-27T11:10:33.645Z,28.10
2018-06-27T11:13:02.766Z,26.23
2018-06-27T11:15:32.125Z,25.73
2018-06-27T11:18:01.376Z,26.50
2018-06-27T11:20:30.575Z,29.60
2018-06-27T11:22:59.698Z,26.53
2018-06-27T11:25:28.849Z,25.47
2018-06-27T11:27:58.029Z,27.90
2018-06-27T11:30:27.164Z,27.03
2018-06-27T11:32:56.276Z,25.63
2018-06-27T11:35:25.428Z,30.17
2018-06-27T11:37:54.533Z,24.97
2018-06-27T11:40:23.654Z,21.03
2018-06-27T11:42:52.752Z,24.13
2018-06-27T11:45:21.891Z,20.63
2018-06-27T11:47:51.021Z,19.83
2018-06-27T11:50:20.186Z,24.53
2018-06-27T11:52:49.315Z,30.90
2018-06-27T11:55:18.510Z,19.17
2018-06-27T11:57:47.622Z,24.73
2018-06-27T12:00:16.743Z,18.07
2018-06-27T12:02:45.899Z,16.73
2018-06-27T12:05:15.020Z,18.27
2018-06-27T12:07:44.157Z,18.60
2018-06-27T12:10:13.260Z,23.47
2018-06-27T12:12:42.546Z,17.37
2018-06-27T12:15:11.751Z,27.23
2018-06-27T12:17:40.883Z,16.53
2018-06-27T12:20:10.044Z,14.20
2018-06-27T12:22:39.142Z,16.10
2018-06-27T12:25:08.282Z,20.57
2018-06-27T12:27:43.801Z,23.87
2018-06-27T12:30:20.128Z,15.90
2018-06-27T12:32:49.655Z,22.77
2018-06-27T12:35:19.557Z,15.37
2018-06-27T12:37:48.671Z,16.37
2018-06-27T12:40:18.129Z,18.30
2018-06-27T12:42:47.240Z,18.70
2018-06-27T12:45:16.707Z,19.83
2018-06-27T12:47:45.797Z,16.33
2018-06-27T12:50:15.022Z,15.43
2018-06-27T12:52:44.194Z,12.93
2018-06-27T12:55:14.066Z,12.87
2018-06-27T12:57:43.327Z,18.50
2018-06-27T13:00:12.519Z,14.90
2018-06-27T13:02:41.629Z,10.60
2018-06-27T13:05:11.153Z,11.63
2018-06-27T13:07:40.260Z,17.30
2018-06-27T13:10:09.881Z,12.57
2018-06-27T13:12:39.121Z,14.80
2018-06-27T13:15:08.370Z,17.10
2018-06-27T13:17:37.475Z,14.70
2018-06-27T13:20:06.910Z,12.60
2018-06-27T13:22:36.095Z,8.83
2018-06-27T13:25:05.481Z,13.70
2018-06-27T13:27:34.652Z,20.43
2018-06-27T13:30:04.448Z,14.90
2018-06-27T13:32:39.108Z,12.70
2018-06-27T13:35:08.441Z,10.10
2018-06-27T13:50:57.022Z,9.00
2018-06-27T13:53:26.134Z,9.17
2018-06-27T13:55:55.292Z,9.33
2018-06-27T13:58:25.105Z,10.63
2018-06-27T14:00:54.279Z,17.60
2018-06-27T14:03:23.442Z,9.93
2018-06-27T14:05:52.723Z,7.73
2018-06-27T14:08:22.411Z,10.03
2018-06-27T14:10:51.086Z,9.67
2018-06-27T14:13:20.922Z,7.00
2018-06-27T14:15:50.120Z,9.53
2018-06-27T14:18:19.409Z,14.33
2018-06-27T14:20:48.547Z,8.13
2018-06-27T14:23:17.676Z,7.47
2018-06-27T14:25:46.958Z,9.27
2018-06-27T14:28:16.045Z,8.37
2018-06-27T14:30:45.168Z,6.00
2018-06-27T14:33:14.285Z,11.97
2018-06-27T14:35:43.514Z,6.97
2018-06-27T14:38:12.674Z,9.47
2018-06-27T14:40:41.813Z,8.53
2018-06-27T14:43:10.908Z,5.97
2018-06-27T14:45:40.117Z,10.83
2018-06-27T14:48:09.309Z,6.67
2018-06-27T14:50:38.774Z,8.00
2018-06-27T14:53:08.283Z,5.90
2018-06-27T14:55:37.786Z,9.90
2018-06-27T14:58:07.564Z,5.20
2018-06-27T15:00:36.716Z,4.50
2018-06-27T15:03:05.918Z,6.33
2018-06-27T15:05:35.118Z,6.00
2018-06-27T15:08:04.263Z,3.27
2018-06-27T15:10:33.424Z,6.53
2018-06-27T15:13:02.587Z,4.37
2018-06-27T15:15:31.783Z,9.40
2018-06-27T15:18:01.108Z,8.23
2018-06-27T15:20:30.368Z,10.13
2018-06-27T15:22:59.533Z,5.23
2018-06-27T15:25:28.698Z,9.00
2018-06-27T15:28:09.159Z,5.73
2018-06-27T15:30:38.744Z,5.50
2018-06-27T15:33:08.055Z,6.47
2018-06-27T15:35:37.220Z,5.20
2018-06-27T15:38:06.566Z,5.30
2018-06-27T15:40:38.633Z,7.40
2018-06-27T15:43:08.932Z,9.40
2018-06-27T15:45:38.653Z,5.30
2018-06-27T15:48:08.659Z,8.30
2018-06-27T15:50:37.935Z,4.17
2018-06-27T15:53:07.795Z,6.53
2018-06-27T15:55:37.778Z,6.63
2018-06-27T15:58:08.072Z,10.00
2018-06-27T16:00:37.429Z,5.83
2018-06-27T16:03:06.685Z,5.93
2018-06-27T16:05:36.791Z,10.40
2018-06-27T16:08:07.384Z,4.23
2018-06-27T16:10:36.620Z,4.67
2018-06-27T16:13:06.016Z,4.07
2018-06-27T16:15:35.177Z,7.00
2018-06-27T16:18:04.619Z,5.33
2018-06-27T16:20:33.747Z,4.67
2018-06-27T16:23:02.831Z,7.77
2018-06-27T16:25:32.108Z,4.87
2018-06-27T16:31:17.305Z,5.43
2018-06-27T16:33:46.489Z,4.90
2018-06-27T16:36:23.049Z,5.23
2018-06-27T16:38:52.420Z,6.30
2018-06-27T16:41:21.587Z,4.87
2018-06-27T16:43:50.873Z,9.43
2018-06-27T16:46:20.073Z,8.37
2018-06-27T16:48:49.205Z,6.70
2018-06-27T16:51:18.450Z,6.30
2018-06-27T16:53:48.033Z,7.23
2018-06-27T16:56:17.188Z,16.80
2018-06-27T16:58:46.580Z,8.10
2018-06-27T17:01:15.838Z,10.37
2018-06-27T17:03:44.559Z,4.60
2018-06-27T17:06:15.633Z,8.13
2018-06-27T17:08:44.819Z,7.07
2018-06-27T17:11:13.970Z,9.17
2018-06-27T17:13:43.394Z,6.10
2018-06-27T17:16:12.716Z,6.80
2018-06-27T17:19:21.079Z,7.30
2018-06-27T17:29:11.386Z,6.47
2018-06-27T17:31:41.569Z,5.93
2018-06-27T17:34:10.743Z,5.77
2018-06-27T17:36:39.920Z,7.13
2018-06-27T17:39:10.698Z,9.10
2018-06-27T17:41:40.483Z,8.77
2018-06-27T17:44:09.691Z,5.23
2018-06-27T17:46:38.859Z,6.63
2018-06-27T17:49:09.668Z,5.17
2018-06-27T17:51:40.832Z,5.57
2018-06-27T17:54:10.102Z,7.57
2018-06-27T17:56:40.357Z,5.10
2018-06-27T17:59:09.559Z,9.53
2018-06-27T18:01:38.784Z,12.73
2018-06-27T18:04:08.486Z,8.23
2018-06-27T18:06:37.665Z,8.13
2018-06-27T18:09:09.024Z,10.60
2018-06-27T18:11:43.814Z,17.60
2018-06-27T18:14:13.191Z,6.80
2018-06-27T18:16:42.351Z,12.40
2018-06-27T18:19:11.521Z,6.90
2018-06-27T18:21:41.234Z,6.50
2018-06-27T18:24:10.400Z,10.20
2018-06-27T18:26:39.535Z,11.57
2018-06-27T18:29:08.162Z,13.20
2018-06-27T18:31:45.359Z,6.73
2018-06-27T18:34:20.316Z,12.00
2018-06-27T18:37:04.459Z,17.10
2018-06-27T18:39:38.175Z,14.63
2018-06-27T18:42:11.933Z,7.70
2018-06-27T18:44:43.268Z,7.97
2018-06-27T18:47:13.764Z,10.97
2018-06-27T18:49:45.551Z,11.73
2018-06-27T18:52:21.837Z,14.57
2018-06-27T18:54:57.338Z,12.57
2018-06-27T18:57:33.518Z,14.00
2018-06-27T19:00:10.596Z,9.17
2018-06-27T19:02:51.225Z,11.53
2018-06-27T19:05:42.892Z,8.77
2018-06-27T19:08:14.280Z,11.43
2018-06-27T19:10:44.845Z,17.93
2018-06-27T19:13:16.606Z,12.60
2018-06-27T19:15:48.004Z,18.43
2018-06-27T19:18:22.424Z,10.37
2018-06-27T19:21:18.027Z,14.40
2018-06-27T19:23:58.043Z,11.20
2018-06-27T19:26:31.295Z,16.43
2018-06-27T19:29:04.391Z,12.97
2018-06-27T19:31:36.495Z,13.30
2018-06-27T19:34:05.979Z,11.03
2018-06-27T19:36:38.436Z,14.40
2018-06-27T19:39:10.254Z,17.30
2018-06-27T19:41:42.148Z,13.20
2018-06-27T19:44:11.452Z,12.30
2018-06-27T19:50:20.445Z,13.73
2018-06-27T19:52:53.062Z,12.60
2018-06-27T19:55:37.972Z,13.77
2018-06-27T19:58:09.729Z,16.60
2018-06-27T20:00:38.920Z,23.17
2018-06-27T20:03:12.638Z,11.30
2018-06-27T20:05:48.728Z,16.40
2018-06-27T20:08:21.877Z,12.77
2018-06-27T20:10:52.835Z,11.13
2018-06-27T20:13:22.009Z,10.43
2018-06-27T20:15:53.521Z,12.87
2018-06-27T20:18:43.995Z,15.10
2018-06-27T20:21:15.631Z,15.13
2018-06-27T20:23:44.951Z,15.67
2018-06-27T20:26:15.437Z,12.10
2018-06-27T20:28:47.140Z,16.63
2018-06-27T20:31:18.081Z,20.53
2018-06-27T20:33:49.942Z,18.93
2018-06-27T20:36:20.800Z,13.40
2018-06-27T20:38:50.747Z,17.13
2018-06-27T20:41:21.494Z,15.23
2018-06-27T20:43:50.759Z,18.00
2018-06-27T20:46:25.601Z,13.83
2018-06-27T20:48:58.055Z,12.97
2018-06-27T20:51:30.282Z,18.00
2018-06-27T20:54:02.598Z,15.37
2018-06-27T20:56:32.312Z,16.27
2018-06-27T20:59:01.443Z,16.73
2018-06-27T21:01:31.694Z,14.43
2018-06-27T21:04:02.426Z,15.40
2018-06-27T21:06:33.223Z,25.53
2018-06-27T21:09:02.460Z,17.37
2018-06-27T21:11:34.582Z,17.30
2018-06-27T21:14:04.815Z,16.27
2018-06-27T21:16:34.210Z,17.83
2018-06-27T21:19:03.504Z,22.47
2018-06-27T21:22:01.469Z,14.47
